sensor_id;sensor_type;location;lat;lon;timestamp;P1;durP1;ratioP1;P2;durP2;ratioP2
19798;SDS011;10059;59.850;10.454;2022-09-13T00:01:44;7.03;;;2.10;;
19798;SDS011;10059;59.850;10.454;2022-09-13T00:04:11;9.33;;;2.23;;
19798;SDS011;10059;59.850;10.454;2022-09-13T00:06:38;5.03;;;1.80;;
19798;SDS011;10059;59.850;10.454;2022-09-13T00:09:05;7.87;;;2.07;;
19798;SDS011;10059;59.850;10.454;2022-09-13T00:11:32;6.10;;;1.90;;
19798;SDS011;10059;59.850;10.454;2022-09-13T00:13:59;4.60;;;1.80;;
19798;SDS011;10059;59.850;10.454;2022-09-13T00:16:27;5.40;;;2.10;;
19798;SDS011;10059;59.850;10.454;2022-09-13T00:18:56;4.30;;;1.77;;
19798;SDS011;10059;59.850;10.454;2022-09-13T00:21:24;5.27;;;2.00;;
19798;SDS011;10059;59.850;10.454;2022-09-13T00:23:52;4.93;;;2.00;;
19798;SDS011;10059;59.850;10.454;2022-09-13T00:26:21;5.00;;;1.90;;
19798;SDS011;10059;59.850;10.454;2022-09-13T00:28:50;4.00;;;1.70;;
19798;SDS011;10059;59.850;10.454;2022-09-13T00:31:18;2.83;;;1.60;;
19798;SDS011;10059;59.850;10.454;2022-09-13T00:33:46;4.43;;;1.33;;
19798;SDS011;10059;59.850;10.454;2022-09-13T00:36:14;5.03;;;1.60;;
19798;SDS011;10059;59.850;10.454;2022-09-13T00:38:41;4.83;;;1.40;;
19798;SDS011;10059;59.850;10.454;2022-09-13T00:41:10;3.87;;;1.30;;
19798;SDS011;10059;59.850;10.454;2022-09-13T00:43:45;3.00;;;1.30;;
19798;SDS011;10059;59.850;10.454;2022-09-13T00:46:16;1.40;;;1.20;;
19798;SDS011;10059;59.850;10.454;2022-09-13T00:48:46;4.30;;;1.30;;
19798;SDS011;10059;59.850;10.454;2022-09-13T00:51:19;4.90;;;1.60;;
19798;SDS011;10059;59.850;10.454;2022-09-13T00:53:47;2.47;;;1.33;;
19798;SDS011;10059;59.850;10.454;2022-09-13T00:56:17;5.37;;;1.07;;
19798;SDS011;10059;59.850;10.454;2022-09-13T00:58:48;2.10;;;1.10;;
19798;SDS011;10059;59.850;10.454;2022-09-13T01:01:18;3.10;;;1.50;;
19798;SDS011;10059;59.850;10.454;2022-09-13T01:03:49;2.63;;;1.20;;
19798;SDS011;10059;59.850;10.454;2022-09-13T01:06:16;5.97;;;1.67;;
19798;SDS011;10059;59.850;10.454;2022-09-13T01:08:48;7.13;;;1.90;;
19798;SDS011;10059;59.850;10.454;2022-09-13T01:11:18;2.97;;;1.70;;
19798;SDS011;10059;59.850;10.454;2022-09-13T01:13:51;4.67;;;1.63;;
19798;SDS011;10059;59.850;10.454;2022-09-13T01:16:20;4.60;;;1.60;;
19798;SDS011;10059;59.850;10.454;2022-09-13T01:18:47;3.50;;;1.50;;
19798;SDS011;10059;59.850;10.454;2022-09-13T01:24:31;4.43;;;1.60;;
19798;SDS011;10059;59.850;10.454;2022-09-13T01:27:32;4.20;;;1.53;;
19798;SDS011;10059;59.850;10.454;2022-09-13T01:30:13;6.57;;;1.80;;
19798;SDS011;10059;59.850;10.454;2022-09-13T01:32:47;4.83;;;1.37;;
19798;SDS011;10059;59.850;10.454;2022-09-13T01:35:33;4.93;;;1.40;;
19798;SDS011;10059;59.850;10.454;2022-09-13T01:38:12;3.50;;;1.50;;
19798;SDS011;10059;59.850;10.454;2022-09-13T01:40:56;3.10;;;1.50;;
19798;SDS011;10059;59.850;10.454;2022-09-13T01:43:37;3.43;;;1.37;;
19798;SDS011;10059;59.850;10.454;2022-09-13T01:46:14;3.80;;;1.20;;
19798;SDS011;10059;59.850;10.454;2022-09-13T01:48:48;4.23;;;1.20;;
19798;SDS011;10059;59.850;10.454;2022-09-13T01:51:22;3.33;;;1.20;;
19798;SDS011;10059;59.850;10.454;2022-09-13T01:53:56;4.37;;;1.23;;
19798;SDS011;10059;59.850;10.454;2022-09-13T01:56:31;1.53;;;1.13;;
19798;SDS011;10059;59.850;10.454;2022-09-13T01:59:05;2.20;;;1.20;;
19798;SDS011;10059;59.850;10.454;2022-09-13T02:01:39;4.50;;;1.40;;
19798;SDS011;10059;59.850;10.454;2022-09-13T02:04:13;2.63;;;1.30;;
19798;SDS011;10059;59.850;10.454;2022-09-13T02:06:44;2.07;;;1.17;;
19798;SDS011;10059;59.850;10.454;2022-09-13T02:09:15;1.80;;;1.10;;
19798;SDS011;10059;59.850;10.454;2022-09-13T02:11:47;1.83;;;1.20;;
19798;SDS011;10059;59.850;10.454;2022-09-13T02:14:19;3.70;;;1.10;;
19798;SDS011;10059;59.850;10.454;2022-09-13T02:16:51;2.20;;;1.20;;
19798;SDS011;10059;59.850;10.454;2022-09-13T02:19:23;2.80;;;1.30;;
19798;SDS011;10059;59.850;10.454;2022-09-13T02:21:58;1.83;;;1.17;;
19798;SDS011;10059;59.850;10.454;2022-09-13T02:24:28;3.23;;;1.10;;
19798;SDS011;10059;59.850;10.454;2022-09-13T02:27:00;2.37;;;1.10;;
19798;SDS011;10059;59.850;10.454;2022-09-13T02:29:32;2.53;;;1.10;;
19798;SDS011;10059;59.850;10.454;2022-09-13T02:32:05;2.37;;;0.93;;
19798;SDS011;10059;59.850;10.454;2022-09-13T02:34:37;2.23;;;1.03;;
19798;SDS011;10059;59.850;10.454;2022-09-13T02:37:09;3.37;;;0.97;;
19798;SDS011;10059;59.850;10.454;2022-09-13T02:39:39;2.37;;;1.07;;
19798;SDS011;10059;59.850;10.454;2022-09-13T02:42:09;2.23;;;1.27;;
19798;SDS011;10059;59.850;10.454;2022-09-13T02:44:42;1.20;;;1.10;;
19798;SDS011;10059;59.850;10.454;2022-09-13T02:47:18;2.93;;;1.20;;
19798;SDS011;10059;59.850;10.454;2022-09-13T02:49:56;3.60;;;1.30;;
19798;SDS011;10059;59.850;10.454;2022-09-13T02:52:34;2.90;;;1.03;;
19798;SDS011;10059;59.850;10.454;2022-09-13T02:55:09;2.20;;;1.10;;
19798;SDS011;10059;59.850;10.454;2022-09-13T02:57:46;5.40;;;1.50;;
19798;SDS011;10059;59.850;10.454;2022-09-13T03:00:20;3.53;;;1.43;;
19798;SDS011;10059;59.850;10.454;2022-09-13T03:02:48;5.57;;;1.40;;
19798;SDS011;10059;59.850;10.454;2022-09-13T03:05:17;5.67;;;1.57;;
19798;SDS011;10059;59.850;10.454;2022-09-13T03:07:43;6.43;;;1.50;;
19798;SDS011;10059;59.850;10.454;2022-09-13T03:10:11;8.10;;;1.40;;
19798;SDS011;10059;59.850;10.454;2022-09-13T03:12:46;4.47;;;1.40;;
19798;SDS011;10059;59.850;10.454;2022-09-13T03:15:33;5.40;;;1.60;;
19798;SDS011;10059;59.850;10.454;2022-09-13T03:18:16;2.87;;;1.40;;
19798;SDS011;10059;59.850;10.454;2022-09-13T03:20:55;5.20;;;1.60;;
19798;SDS011;10059;59.850;10.454;2022-09-13T03:23:35;3.93;;;1.57;;
19798;SDS011;10059;59.850;10.454;2022-09-13T03:29:11;5.20;;;1.73;;
19798;SDS011;10059;59.850;10.454;2022-09-13T03:31:49;5.67;;;1.60;;
19798;SDS011;10059;59.850;10.454;2022-09-13T03:34:27;5.47;;;1.60;;
19798;SDS011;10059;59.850;10.454;2022-09-13T03:37:01;4.70;;;1.43;;
19798;SDS011;10059;59.850;10.454;2022-09-13T03:39:34;7.57;;;1.57;;
19798;SDS011;10059;59.850;10.454;2022-09-13T03:42:11;3.97;;;1.17;;
19798;SDS011;10059;59.850;10.454;2022-09-13T03:44:42;6.03;;;1.30;;
19798;SDS011;10059;59.850;10.454;2022-09-13T03:47:12;2.33;;;1.10;;
19798;SDS011;10059;59.850;10.454;2022-09-13T03:49:43;3.60;;;1.03;;
19798;SDS011;10059;59.850;10.454;2022-09-13T03:52:10;3.87;;;1.27;;
19798;SDS011;10059;59.850;10.454;2022-09-13T03:54:38;2.90;;;1.00;;
19798;SDS011;10059;59.850;10.454;2022-09-13T03:57:05;3.80;;;1.27;;
19798;SDS011;10059;59.850;10.454;2022-09-13T03:59:38;3.47;;;0.90;;
19798;SDS011;10059;59.850;10.454;2022-09-13T04:02:07;3.83;;;0.87;;
19798;SDS011;10059;59.850;10.454;2022-09-13T04:04:35;5.67;;;1.10;;
19798;SDS011;10059;59.850;10.454;2022-09-13T04:07:04;1.63;;;0.80;;
19798;SDS011;10059;59.850;10.454;2022-09-13T04:09:31;4.60;;;0.97;;
19798;SDS011;10059;59.850;10.454;2022-09-13T04:11:58;4.10;;;1.10;;
19798;SDS011;10059;59.850;10.454;2022-09-13T04:14:25;4.27;;;1.00;;
19798;SDS011;10059;59.850;10.454;2022-09-13T04:16:52;2.73;;;1.17;;
19798;SDS011;10059;59.850;10.454;2022-09-13T04:19:20;2.80;;;1.20;;
19798;SDS011;10059;59.850;10.454;2022-09-13T04:21:47;3.53;;;1.10;;
19798;SDS011;10059;59.850;10.454;2022-09-13T04:24:16;4.20;;;1.07;;
19798;SDS011;10059;59.850;10.454;2022-09-13T04:26:44;8.63;;;1.13;;
19798;SDS011;10059;59.850;10.454;2022-09-13T04:29:14;3.33;;;1.30;;
19798;SDS011;10059;59.850;10.454;2022-09-13T04:31:42;8.13;;;1.30;;
19798;SDS011;10059;59.850;10.454;2022-09-13T04:34:09;3.60;;;1.20;;
19798;SDS011;10059;59.850;10.454;2022-09-13T04:36:37;2.70;;;1.10;;
19798;SDS011;10059;59.850;10.454;2022-09-13T04:39:04;6.43;;;1.47;;
19798;SDS011;10059;59.850;10.454;2022-09-13T04:41:32;4.20;;;1.30;;
19798;SDS011;10059;59.850;10.454;2022-09-13T04:43:59;6.53;;;1.47;;
19798;SDS011;10059;59.850;10.454;2022-09-13T04:46:26;4.57;;;1.43;;
19798;SDS011;10059;59.850;10.454;2022-09-13T04:48:53;4.87;;;1.23;;
19798;SDS011;10059;59.850;10.454;2022-09-13T04:51:20;3.83;;;1.30;;
19798;SDS011;10059;59.850;10.454;2022-09-13T04:53:50;5.43;;;1.30;;
19798;SDS011;10059;59.850;10.454;2022-09-13T04:56:17;4.57;;;1.27;;
19798;SDS011;10059;59.850;10.454;2022-09-13T04:58:46;4.60;;;1.23;;
19798;SDS011;10059;59.850;10.454;2022-09-13T05:01:13;5.73;;;1.47;;
19798;SDS011;10059;59.850;10.454;2022-09-13T05:03:40;3.07;;;1.00;;
19798;SDS011;10059;59.850;10.454;2022-09-13T05:06:07;4.43;;;1.00;;
19798;SDS011;10059;59.850;10.454;2022-09-13T05:08:35;4.03;;;0.80;;
19798;SDS011;10059;59.850;10.454;2022-09-13T05:11:03;4.13;;;1.60;;
19798;SDS011;10059;59.850;10.454;2022-09-13T05:13:30;6.00;;;1.30;;
19798;SDS011;10059;59.850;10.454;2022-09-13T05:16:00;1.90;;;0.70;;
19798;SDS011;10059;59.850;10.454;2022-09-13T05:18:30;3.60;;;0.83;;
19798;SDS011;10059;59.850;10.454;2022-09-13T05:20:58;4.97;;;1.23;;
19798;SDS011;10059;59.850;10.454;2022-09-13T05:23:27;1.77;;;0.70;;
19798;SDS011;10059;59.850;10.454;2022-09-13T05:25:54;1.67;;;0.70;;
19798;SDS011;10059;59.850;10.454;2022-09-13T05:28:22;2.23;;;0.80;;
19798;SDS011;10059;59.850;10.454;2022-09-13T05:30:55;2.80;;;0.60;;
19798;SDS011;10059;59.850;10.454;2022-09-13T05:33:24;2.90;;;0.80;;
19798;SDS011;10059;59.850;10.454;2022-09-13T05:35:52;1.13;;;0.50;;
19798;SDS011;10059;59.850;10.454;2022-09-13T05:38:20;3.90;;;0.60;;
19798;SDS011;10059;59.850;10.454;2022-09-13T05:40:47;1.87;;;0.60;;
19798;SDS011;10059;59.850;10.454;2022-09-13T05:43:19;2.03;;;0.50;;
19798;SDS011;10059;59.850;10.454;2022-09-13T05:45:46;2.47;;;0.53;;
19798;SDS011;10059;59.850;10.454;2022-09-13T05:48:12;2.03;;;0.50;;
19798;SDS011;10059;59.850;10.454;2022-09-13T05:50:41;1.13;;;0.40;;
19798;SDS011;10059;59.850;10.454;2022-09-13T05:53:07;1.00;;;0.30;;
19798;SDS011;10059;59.850;10.454;2022-09-13T05:55:34;0.97;;;0.30;;
19798;SDS011;10059;59.850;10.454;2022-09-13T05:58:01;2.10;;;0.40;;
19798;SDS011;10059;59.850;10.454;2022-09-13T06:00:28;1.43;;;0.40;;
19798;SDS011;10059;59.850;10.454;2022-09-13T06:02:55;1.87;;;0.33;;
19798;SDS011;10059;59.850;10.454;2022-09-13T06:05:22;1.07;;;0.30;;
19798;SDS011;10059;59.850;10.454;2022-09-13T06:07:51;1.33;;;0.30;;
19798;SDS011;10059;59.850;10.454;2022-09-13T06:10:18;1.10;;;0.20;;
19798;SDS011;10059;59.850;10.454;2022-09-13T06:12:45;1.17;;;0.30;;
19798;SDS011;10059;59.850;10.454;2022-09-13T06:15:12;4.03;;;0.37;;
19798;SDS011;10059;59.850;10.454;2022-09-13T06:17:39;0.30;;;0.20;;
19798;SDS011;10059;59.850;10.454;2022-09-13T06:20:07;1.43;;;0.20;;
19798;SDS011;10059;59.850;10.454;2022-09-13T06:22:35;0.37;;;0.20;;
19798;SDS011;10059;59.850;10.454;2022-09-13T06:25:03;0.37;;;0.10;;
19798;SDS011;10059;59.850;10.454;2022-09-13T06:27:31;0.60;;;0.30;;
19798;SDS011;10059;59.850;10.454;2022-09-13T06:29:58;0.50;;;0.20;;
19798;SDS011;10059;59.850;10.454;2022-09-13T06:32:25;0.40;;;0.10;;
19798;SDS011;10059;59.850;10.454;2022-09-13T06:34:51;0.37;;;0.20;;
19798;SDS011;10059;59.850;10.454;2022-09-13T06:37:18;0.70;;;0.40;;
19798;SDS011;10059;59.850;10.454;2022-09-13T06:39:45;1.63;;;0.90;;
19798;SDS011;10059;59.850;10.454;2022-09-13T06:42:14;0.80;;;0.70;;
19798;SDS011;10059;59.850;10.454;2022-09-13T06:44:41;3.07;;;0.80;;
19798;SDS011;10059;59.850;10.454;2022-09-13T06:47:09;2.40;;;0.60;;
19798;SDS011;10059;59.850;10.454;2022-09-13T06:49:37;0.80;;;0.60;;
19798;SDS011;10059;59.850;10.454;2022-09-13T06:52:04;1.00;;;0.50;;
19798;SDS011;10059;59.850;10.454;2022-09-13T06:54:31;2.40;;;0.70;;
19798;SDS011;10059;59.850;10.454;2022-09-13T06:56:58;1.23;;;0.60;;
19798;SDS011;10059;59.850;10.454;2022-09-13T06:59:28;1.80;;;0.40;;
19798;SDS011;10059;59.850;10.454;2022-09-13T07:01:55;0.77;;;0.33;;
19798;SDS011;10059;59.850;10.454;2022-09-13T07:04:22;0.20;;;0.20;;
19798;SDS011;10059;59.850;10.454;2022-09-13T07:06:49;1.57;;;0.40;;
19798;SDS011;10059;59.850;10.454;2022-09-13T07:09:17;1.43;;;0.37;;
19798;SDS011;10059;59.850;10.454;2022-09-13T07:11:45;0.70;;;0.40;;
19798;SDS011;10059;59.850;10.454;2022-09-13T07:14:14;1.43;;;0.37;;
19798;SDS011;10059;59.850;10.454;2022-09-13T07:16:44;1.07;;;0.50;;
19798;SDS011;10059;59.850;10.454;2022-09-13T07:19:12;2.97;;;0.73;;
19798;SDS011;10059;59.850;10.454;2022-09-13T07:21:40;1.77;;;0.87;;
19798;SDS011;10059;59.850;10.454;2022-09-13T07:24:07;3.07;;;0.60;;
19798;SDS011;10059;59.850;10.454;2022-09-13T07:26:35;1.00;;;0.60;;
19798;SDS011;10059;59.850;10.454;2022-09-13T07:29:03;0.97;;;0.53;;
19798;SDS011;10059;59.850;10.454;2022-09-13T07:31:32;2.70;;;0.63;;
19798;SDS011;10059;59.850;10.454;2022-09-13T07:34:02;1.93;;;0.60;;
19798;SDS011;10059;59.850;10.454;2022-09-13T07:36:31;1.83;;;0.80;;
19798;SDS011;10059;59.850;10.454;2022-09-13T07:38:59;2.57;;;0.50;;
19798;SDS011;10059;59.850;10.454;2022-09-13T07:41:27;2.63;;;0.43;;
19798;SDS011;10059;59.850;10.454;2022-09-13T07:43:57;1.03;;;0.50;;
19798;SDS011;10059;59.850;10.454;2022-09-13T07:46:26;0.60;;;0.40;;
19798;SDS011;10059;59.850;10.454;2022-09-13T07:48:56;0.30;;;0.30;;
19798;SDS011;10059;59.850;10.454;2022-09-13T07:51:25;0.93;;;0.30;;
19798;SDS011;10059;59.850;10.454;2022-09-13T07:53:54;1.33;;;0.40;;
19798;SDS011;10059;59.850;10.454;2022-09-13T07:56:24;0.30;;;0.30;;
19798;SDS011;10059;59.850;10.454;2022-09-13T07:58:52;0.63;;;0.40;;
19798;SDS011;10059;59.850;10.454;2022-09-13T08:01:20;0.70;;;0.40;;
19798;SDS011;10059;59.850;10.454;2022-09-13T08:03:49;1.17;;;0.40;;
19798;SDS011;10059;59.850;10.454;2022-09-13T08:06:18;2.33;;;0.60;;
19798;SDS011;10059;59.850;10.454;2022-09-13T08:08:46;2.10;;;0.30;;
19798;SDS011;10059;59.850;10.454;2022-09-13T08:11:15;1.60;;;0.20;;
19798;SDS011;10059;59.850;10.454;2022-09-13T08:13:43;0.50;;;0.20;;
19798;SDS011;10059;59.850;10.454;2022-09-13T08:16:11;0.40;;;0.30;;
19798;SDS011;10059;59.850;10.454;2022-09-13T08:18:42;1.43;;;0.27;;
19798;SDS011;10059;59.850;10.454;2022-09-13T08:21:10;0.50;;;0.30;;
19798;SDS011;10059;59.850;10.454;2022-09-13T08:23:37;1.40;;;0.40;;
19798;SDS011;10059;59.850;10.454;2022-09-13T08:26:06;0.67;;;0.37;;
19798;SDS011;10059;59.850;10.454;2022-09-13T08:28:35;0.50;;;0.30;;
19798;SDS011;10059;59.850;10.454;2022-09-13T08:31:03;0.97;;;0.30;;
19798;SDS011;10059;59.850;10.454;2022-09-13T08:33:31;0.40;;;0.20;;
19798;SDS011;10059;59.850;10.454;2022-09-13T08:35:58;2.10;;;0.27;;
19798;SDS011;10059;59.850;10.454;2022-09-13T08:38:25;2.43;;;0.50;;
19798;SDS011;10059;59.850;10.454;2022-09-13T08:40:54;0.30;;;0.30;;
19798;SDS011;10059;59.850;10.454;2022-09-13T08:43:26;1.00;;;0.30;;
19798;SDS011;10059;59.850;10.454;2022-09-13T08:46:20;0.50;;;0.30;;
19798;SDS011;10059;59.850;10.454;2022-09-13T08:48:50;0.60;;;0.20;;
19798;SDS011;10059;59.850;10.454;2022-09-13T08:51:25;0.47;;;0.30;;
19798;SDS011;10059;59.850;10.454;2022-09-13T08:53:57;0.43;;;0.30;;
19798;SDS011;10059;59.850;10.454;2022-09-13T08:56:27;0.53;;;0.20;;
19798;SDS011;10059;59.850;10.454;2022-09-13T08:59:05;1.43;;;0.30;;
19798;SDS011;10059;59.850;10.454;2022-09-13T09:01:46;0.43;;;0.30;;
19798;SDS011;10059;59.850;10.454;2022-09-13T09:04:29;1.40;;;0.70;;
19798;SDS011;10059;59.850;10.454;2022-09-13T09:07:04;1.40;;;0.30;;
19798;SDS011;10059;59.850;10.454;2022-09-13T09:09:36;0.80;;;0.30;;
19798;SDS011;10059;59.850;10.454;2022-09-13T09:12:10;0.40;;;0.30;;
19798;SDS011;10059;59.850;10.454;2022-09-13T09:14:44;0.83;;;0.40;;
19798;SDS011;10059;59.850;10.454;2022-09-13T09:17:13;0.53;;;0.30;;
19798;SDS011;10059;59.850;10.454;2022-09-13T09:19:44;1.53;;;0.30;;
19798;SDS011;10059;59.850;10.454;2022-09-13T09:22:15;1.30;;;0.40;;
19798;SDS011;10059;59.850;10.454;2022-09-13T09:24:44;0.20;;;0.10;;
19798;SDS011;10059;59.850;10.454;2022-09-13T09:27:14;0.20;;;0.20;;
19798;SDS011;10059;59.850;10.454;2022-09-13T09:29:43;2.90;;;0.20;;
19798;SDS011;10059;59.850;10.454;2022-09-13T09:32:15;0.30;;;0.20;;
19798;SDS011;10059;59.850;10.454;2022-09-13T09:35:01;1.60;;;0.20;;
19798;SDS011;10059;59.850;10.454;2022-09-13T09:37:35;7.30;;;0.60;;
19798;SDS011;10059;59.850;10.454;2022-09-13T09:40:05;0.50;;;0.20;;
19798;SDS011;10059;59.850;10.454;2022-09-13T09:42:38;1.37;;;0.20;;
19798;SDS011;10059;59.850;10.454;2022-09-13T09:45:17;0.40;;;0.10;;
19798;SDS011;10059;59.850;10.454;2022-09-13T09:47:49;0.47;;;0.13;;
19798;SDS011;10059;59.850;10.454;2022-09-13T09:50:17;0.20;;;0.20;;
19798;SDS011;10059;59.850;10.454;2022-09-13T09:52:49;0.77;;;0.10;;
19798;SDS011;10059;59.850;10.454;2022-09-13T09:55:24;0.50;;;0.20;;
19798;SDS011;10059;59.850;10.454;2022-09-13T09:57:54;2.03;;;0.30;;
19798;SDS011;10059;59.850;10.454;2022-09-13T10:00:25;0.40;;;0.13;;
19798;SDS011;10059;59.850;10.454;2022-09-13T10:02:55;0.10;;;0.10;;
19798;SDS011;10059;59.850;10.454;2022-09-13T10:05:25;0.27;;;0.20;;
19798;SDS011;10059;59.850;10.454;2022-09-13T10:07:54;1.13;;;0.33;;
19798;SDS011;10059;59.850;10.454;2022-09-13T10:10:25;0.17;;;0.17;;
19798;SDS011;10059;59.850;10.454;2022-09-13T10:12:57;0.50;;;0.20;;
19798;SDS011;10059;59.850;10.454;2022-09-13T10:15:26;0.40;;;0.20;;
19798;SDS011;10059;59.850;10.454;2022-09-13T10:18:02;0.20;;;0.20;;
19798;SDS011;10059;59.850;10.454;2022-09-13T10:20:40;1.13;;;0.20;;
19798;SDS011;10059;59.850;10.454;2022-09-13T10:23:19;0.30;;;0.30;;
19798;SDS011;10059;59.850;10.454;2022-09-13T10:26:03;0.40;;;0.20;;
19798;SDS011;10059;59.850;10.454;2022-09-13T10:28:34;1.63;;;0.40;;
19798;SDS011;10059;59.850;10.454;2022-09-13T10:31:07;0.60;;;0.30;;
19798;SDS011;10059;59.850;10.454;2022-09-13T10:33:36;0.73;;;0.20;;
19798;SDS011;10059;59.850;10.454;2022-09-13T10:36:06;0.50;;;0.30;;
19798;SDS011;10059;59.850;10.454;2022-09-13T10:38:39;1.57;;;0.30;;
19798;SDS011;10059;59.850;10.454;2022-09-13T10:41:08;0.97;;;0.30;;
19798;SDS011;10059;59.850;10.454;2022-09-13T10:43:45;1.43;;;0.27;;
19798;SDS011;10059;59.850;10.454;2022-09-13T10:46:20;3.10;;;0.30;;
19798;SDS011;10059;59.850;10.454;2022-09-13T10:48:48;0.20;;;0.20;;
19798;SDS011;10059;59.850;10.454;2022-09-13T10:51:27;0.87;;;0.20;;
19798;SDS011;10059;59.850;10.454;2022-09-13T10:54:06;0.73;;;0.23;;
19798;SDS011;10059;59.850;10.454;2022-09-13T10:56:44;0.20;;;0.20;;
19798;SDS011;10059;59.850;10.454;2022-09-13T10:59:16;0.30;;;0.30;;
19798;SDS011;10059;59.850;10.454;2022-09-13T11:01:50;0.73;;;0.13;;
19798;SDS011;10059;59.850;10.454;2022-09-13T11:04:55;0.37;;;0.20;;
19798;SDS011;10059;59.850;10.454;2022-09-13T11:10:34;0.87;;;0.20;;
19798;SDS011;10059;59.850;10.454;2022-09-13T11:13:18;0.60;;;0.20;;
19798;SDS011;10059;59.850;10.454;2022-09-13T11:15:54;0.20;;;0.17;;
19798;SDS011;10059;59.850;10.454;2022-09-13T11:21:38;2.30;;;0.20;;
19798;SDS011;10059;59.850;10.454;2022-09-13T11:24:19;0.50;;;0.20;;
19798;SDS011;10059;59.850;10.454;2022-09-13T11:27:01;0.30;;;0.20;;
19798;SDS011;10059;59.850;10.454;2022-09-13T11:29:39;1.90;;;0.20;;
19798;SDS011;10059;59.850;10.454;2022-09-13T11:32:23;0.53;;;0.10;;
19798;SDS011;10059;59.850;10.454;2022-09-13T11:35:03;2.50;;;0.20;;
19798;SDS011;10059;59.850;10.454;2022-09-13T11:37:43;4.73;;;0.40;;
19798;SDS011;10059;59.850;10.454;2022-09-13T11:40:21;0.23;;;0.20;;
19798;SDS011;10059;59.850;10.454;2022-09-13T11:42:57;1.47;;;0.20;;
19798;SDS011;10059;59.850;10.454;2022-09-13T11:45:36;0.83;;;0.10;;
19798;SDS011;10059;59.850;10.454;2022-09-13T11:48:17;0.30;;;0.20;;
19798;SDS011;10059;59.850;10.454;2022-09-13T11:50:58;1.80;;;0.20;;
19798;SDS011;10059;59.850;10.454;2022-09-13T11:53:38;2.53;;;0.30;;
19798;SDS011;10059;59.850;10.454;2022-09-13T11:56:20;0.60;;;0.30;;
19798;SDS011;10059;59.850;10.454;2022-09-13T11:58:51;0.33;;;0.20;;
19798;SDS011;10059;59.850;10.454;2022-09-13T12:01:21;1.33;;;0.30;;
19798;SDS011;10059;59.850;10.454;2022-09-13T12:03:55;0.40;;;0.20;;
19798;SDS011;10059;59.850;10.454;2022-09-13T12:06:28;0.27;;;0.10;;
19798;SDS011;10059;59.850;10.454;2022-09-13T12:08:59;0.87;;;0.20;;
19798;SDS011;10059;59.850;10.454;2022-09-13T12:11:31;0.50;;;0.20;;
19798;SDS011;10059;59.850;10.454;2022-09-13T12:14:01;0.70;;;0.30;;
19798;SDS011;10059;59.850;10.454;2022-09-13T12:16:31;0.50;;;0.20;;
19798;SDS011;10059;59.850;10.454;2022-09-13T12:19:01;0.10;;;0.10;;
19798;SDS011;10059;59.850;10.454;2022-09-13T12:21:36;0.40;;;0.20;;
19798;SDS011;10059;59.850;10.454;2022-09-13T12:24:07;1.07;;;0.20;;
19798;SDS011;10059;59.850;10.454;2022-09-13T12:26:40;2.00;;;0.20;;
19798;SDS011;10059;59.850;10.454;2022-09-13T12:29:14;0.70;;;0.20;;
19798;SDS011;10059;59.850;10.454;2022-09-13T12:31:45;1.60;;;0.30;;
19798;SDS011;10059;59.850;10.454;2022-09-13T12:34:15;2.23;;;0.10;;
19798;SDS011;10059;59.850;10.454;2022-09-13T12:37:06;0.20;;;0.07;;
19798;SDS011;10059;59.850;10.454;2022-09-13T12:39:55;0.20;;;0.10;;
19798;SDS011;10059;59.850;10.454;2022-09-13T12:42:39;0.67;;;0.20;;
19798;SDS011;10059;59.850;10.454;2022-09-13T12:48:42;0.10;;;0.10;;
19798;SDS011;10059;59.850;10.454;2022-09-13T12:51:36;0.60;;;0.33;;
19798;SDS011;10059;59.850;10.454;2022-09-13T12:54:21;0.10;;;0.10;;
19798;SDS011;10059;59.850;10.454;2022-09-13T12:57:07;0.57;;;0.20;;
19798;SDS011;10059;59.850;10.454;2022-09-13T13:02:35;0.97;;;0.17;;
19798;SDS011;10059;59.850;10.454;2022-09-13T13:05:06;0.40;;;0.20;;
19798;SDS011;10059;59.850;10.454;2022-09-13T13:07:49;1.03;;;0.40;;
19798;SDS011;10059;59.850;10.454;2022-09-13T13:10:30;2.73;;;0.30;;
19798;SDS011;10059;59.850;10.454;2022-09-13T13:15:57;1.10;;;0.10;;
19798;SDS011;10059;59.850;10.454;2022-09-13T13:18:27;1.43;;;0.10;;
19798;SDS011;10059;59.850;10.454;2022-09-13T13:21:20;0.93;;;0.17;;
19798;SDS011;10059;59.850;10.454;2022-09-13T13:27:33;0.23;;;0.10;;
19798;SDS011;10059;59.850;10.454;2022-09-13T13:33:11;0.30;;;0.13;;
19798;SDS011;10059;59.850;10.454;2022-09-13T13:35:40;2.00;;;0.10;;
19798;SDS011;10059;59.850;10.454;2022-09-13T13:38:14;1.23;;;0.30;;
19798;SDS011;10059;59.850;10.454;2022-09-13T13:40:42;0.30;;;0.10;;
19798;SDS011;10059;59.850;10.454;2022-09-13T13:43:24;2.10;;;0.20;;
19798;SDS011;10059;59.850;10.454;2022-09-13T13:45:56;0.73;;;0.20;;
19798;SDS011;10059;59.850;10.454;2022-09-13T13:48:35;0.67;;;0.20;;
19798;SDS011;10059;59.850;10.454;2022-09-13T13:51:19;0.67;;;0.40;;
19798;SDS011;10059;59.850;10.454;2022-09-13T13:53:49;0.27;;;0.20;;
19798;SDS011;10059;59.850;10.454;2022-09-13T13:56:21;1.77;;;0.27;;
19798;SDS011;10059;59.850;10.454;2022-09-13T13:59:07;0.47;;;0.20;;
19798;SDS011;10059;59.850;10.454;2022-09-13T14:01:43;0.80;;;0.20;;
19798;SDS011;10059;59.850;10.454;2022-09-13T14:07:29;1.90;;;0.20;;
19798;SDS011;10059;59.850;10.454;2022-09-13T14:10:21;2.60;;;0.30;;
19798;SDS011;10059;59.850;10.454;2022-09-13T14:12:59;2.07;;;0.30;;
19798;SDS011;10059;59.850;10.454;2022-09-13T14:15:45;2.67;;;0.20;;
19798;SDS011;10059;59.850;10.454;2022-09-13T14:18:31;1.90;;;0.37;;
19798;SDS011;10059;59.850;10.454;2022-09-13T14:21:17;1.17;;;0.30;;
19798;SDS011;10059;59.850;10.454;2022-09-13T14:23:46;2.20;;;0.20;;
19798;SDS011;10059;59.850;10.454;2022-09-13T14:26:13;0.77;;;0.20;;
19798;SDS011;10059;59.850;10.454;2022-09-13T14:28:40;1.57;;;0.50;;
19798;SDS011;10059;59.850;10.454;2022-09-13T14:31:14;1.17;;;0.57;;
19798;SDS011;10059;59.850;10.454;2022-09-13T14:33:44;1.13;;;0.20;;
19798;SDS011;10059;59.850;10.454;2022-09-13T14:36:16;1.53;;;0.37;;
19798;SDS011;10059;59.850;10.454;2022-09-13T14:38:48;0.67;;;0.20;;
19798;SDS011;10059;59.850;10.454;2022-09-13T14:41:17;0.90;;;0.30;;
19798;SDS011;10059;59.850;10.454;2022-09-13T14:43:45;0.27;;;0.20;;
19798;SDS011;10059;59.850;10.454;2022-09-13T14:46:15;2.93;;;0.30;;
19798;SDS011;10059;59.850;10.454;2022-09-13T14:48:47;2.00;;;0.40;;
19798;SDS011;10059;59.850;10.454;2022-09-13T14:51:17;0.60;;;0.30;;
19798;SDS011;10059;59.850;10.454;2022-09-13T14:53:48;0.37;;;0.20;;
19798;SDS011;10059;59.850;10.454;2022-09-13T14:56:19;1.80;;;0.20;;
19798;SDS011;10059;59.850;10.454;2022-09-13T14:59:11;0.40;;;0.30;;
19798;SDS011;10059;59.850;10.454;2022-09-13T15:01:43;0.50;;;0.20;;
19798;SDS011;10059;59.850;10.454;2022-09-13T15:04:10;4.23;;;0.37;;
19798;SDS011;10059;59.850;10.454;2022-09-13T15:06:38;0.33;;;0.20;;
19798;SDS011;10059;59.850;10.454;2022-09-13T15:09:14;1.80;;;0.20;;
19798;SDS011;10059;59.850;10.454;2022-09-13T15:11:55;1.40;;;0.20;;
19798;SDS011;10059;59.850;10.454;2022-09-13T15:14:24;0.67;;;0.10;;
19798;SDS011;10059;59.850;10.454;2022-09-13T15:16:57;0.10;;;0.10;;
19798;SDS011;10059;59.850;10.454;2022-09-13T15:19:27;0.70;;;0.20;;
19798;SDS011;10059;59.850;10.454;2022-09-13T15:22:02;0.97;;;0.10;;
19798;SDS011;10059;59.850;10.454;2022-09-13T15:24:45;1.07;;;0.23;;
19798;SDS011;10059;59.850;10.454;2022-09-13T15:27:15;1.13;;;0.20;;
19798;SDS011;10059;59.850;10.454;2022-09-13T15:29:48;0.20;;;0.20;;
19798;SDS011;10059;59.850;10.454;2022-09-13T15:32:27;0.43;;;0.10;;
19798;SDS011;10059;59.850;10.454;2022-09-13T15:34:56;2.00;;;0.40;;